»·PEaware :: N266MZ KBFL-KMHV

N266MZ :: KBFL-KMHV

FLIGHT INFORMATION

Flight Status: Arrived
Operator: Privately registered:
United States
More flights under this callsign
Pilot: Magnus A. (27892)
Aircraft: CESSNA 172 SKYHAWK
(C172)
More flights by this aircraft type
Origin: KBFL Meadows
United States
Destination: KMHV Mojave
United States
More flights between these airports :: More routes between these airports
Route:
File this flight plan on PilotEdge
Remarks:
Altitude:
(Current/Filed)
0ft
Speed:
(Current/Filed)
0kts
Departed: 13-Feb-20 05:10 PM
Arrived: 13-Feb-20 05:45 PM
Distance/Time
Traveled:
50nm/0:35
Distance/Time
To Go:
Arrived

Flight Plot

Page will automatically refresh every two minutes.


Map Options




Map Legend


Flown Route
Filed Route
Departure Airport
Arrival Airport
Navaid (VOR, NDB)
Fix

Horizontal Profiles

Position Reports

Time Latitude Longitude Heading Altitude Ground
Speed
13-Feb-20 16:55 35.435510 -119.052856 265 501ft 0kts
13-Feb-20 16:56 35.435510 -119.052856 265 501ft 0kts
13-Feb-20 16:57 35.435510 -119.052856 265 501ft 0kts
13-Feb-20 16:58 35.435510 -119.052856 265 501ft 0kts
13-Feb-20 16:59 35.435510 -119.052856 265 501ft 0kts
13-Feb-20 17:00 35.435510 -119.052856 265 501ft 0kts
13-Feb-20 17:01 35.435510 -119.052856 265 501ft 0kts
13-Feb-20 17:02 35.435510 -119.052856 265 501ft 0kts
13-Feb-20 17:03 35.435507 -119.052898 265 501ft 2kts
13-Feb-20 17:04 35.434006 -119.054056 140 493ft 14kts
13-Feb-20 17:05 35.431012 -119.050574 134 492ft 19kts
13-Feb-20 17:06 35.426996 -119.045747 136 483ft 29kts
13-Feb-20 17:07 35.425462 -119.044688 14 479ft 0kts
13-Feb-20 17:08 35.425495 -119.044772 272 479ft 0kts
13-Feb-20 17:09 35.425483 -119.046035 309 476ft 0kts
13-Feb-20 17:10 35.436266 -119.060718 308 995ft 78kts
13-Feb-20 17:10 35.451466 -119.060154 69 1549ft 92kts
13-Feb-20 17:12 35.435263 -119.033432 125 2173ft 90kts
13-Feb-20 17:13 35.423493 -119.009137 112 2885ft 88kts
13-Feb-20 17:13 35.418417 -118.985857 105 3493ft 90kts
13-Feb-20 17:15 35.412665 -118.951319 106 4360ft 93kts
13-Feb-20 17:15 35.404426 -118.926745 123 4986ft 93kts
13-Feb-20 17:16 35.390080 -118.899120 128 5708ft 93kts
13-Feb-20 17:17 35.370390 -118.858625 112 5551ft 110kts
13-Feb-20 17:18 35.358337 -118.822840 111 5474ft 111kts
13-Feb-20 17:19 35.346317 -118.787973 110 5456ft 110kts
13-Feb-20 17:20 35.336062 -118.752309 111 5478ft 111kts
13-Feb-20 17:21 35.322860 -118.718112 114 5507ft 111kts
13-Feb-20 17:22 35.311173 -118.683572 110 5543ft 109kts
13-Feb-20 17:23 35.298550 -118.649548 110 5586ft 108kts
13-Feb-20 17:24 35.286393 -118.616267 119 5631ft 107kts
13-Feb-20 17:25 35.264535 -118.591412 139 5662ft 107kts
13-Feb-20 17:26 35.241425 -118.571390 142 5717ft 100kts
13-Feb-20 17:27 35.221479 -118.548005 138 5674ft 99kts
13-Feb-20 17:28 35.200784 -118.525671 135 5614ft 98kts
13-Feb-20 17:29 35.179835 -118.503857 139 5555ft 98kts
13-Feb-20 17:30 35.158860 -118.482285 134 5498ft 99kts
13-Feb-20 17:31 35.141824 -118.456062 117 5222ft 97kts
13-Feb-20 17:32 35.132245 -118.425321 107 5455ft 104kts
13-Feb-20 17:33 35.125637 -118.389489 100 5466ft 108kts
13-Feb-20 17:34 35.121023 -118.353525 103 5460ft 105kts
13-Feb-20 17:35 35.109835 -118.320418 113 5514ft 108kts
13-Feb-20 17:36 35.098730 -118.286681 112 5826ft 105kts
13-Feb-20 17:37 35.083601 -118.252681 123 5002ft 130kts
13-Feb-20 17:38 35.066253 -118.213176 104 3543ft 123kts
13-Feb-20 17:39 35.056322 -118.181328 109 3599ft 95kts
13-Feb-20 17:40 35.044799 -118.152943 131 3438ft 97kts
13-Feb-20 17:41 35.025671 -118.131790 127 3406ft 84kts
13-Feb-20 17:42 35.036804 -118.123135 319 3257ft 67kts
13-Feb-20 17:43 35.048948 -118.136227 319 2877ft 56kts
13-Feb-20 17:44 35.058263 -118.147251 316 2741ft 26kts
13-Feb-20 17:45 35.060336 -118.149804 314 2753ft 15kts
13-Feb-20 17:46 35.062474 -118.152711 310 2763ft 0kts
13-Feb-20 17:47 35.062300 -118.153502 222 2765ft 4kts
13-Feb-20 17:48 35.059789 -118.151450 132 2755ft 14kts
13-Feb-20 17:49 35.056453 -118.150060 221 2743ft 12kts
13-Feb-20 17:50 35.056374 -118.150415 264 2744ft 0kts
13-Feb-20 17:51 35.056374 -118.150415 264 2744ft 0kts
13-Feb-20 17:52 35.056374 -118.150415 264 2744ft 0kts
13-Feb-20 17:53 35.056374 -118.150415 264 2744ft 0kts
13-Feb-20 17:54 35.056374 -118.150415 264 2744ft 0kts
13-Feb-20 17:55 35.056374 -118.150415 264 2744ft 0kts
13-Feb-20 17:56 35.056374 -118.150415 264 2744ft 0kts
13-Feb-20 17:57 35.056374 -118.150415 264 2744ft 0kts
13-Feb-20 17:58 35.056374 -118.150415 264 2744ft 0kts

Navigation Log

Ident Type
Flight plan parsing failed, navigation log unavailable